createdAt,value
2017-01-22T00:00:05.260Z,100
2017-01-22T00:10:19.954Z,100
2017-01-22T00:20:33.240Z,100
2017-01-22T00:30:47.254Z,100
2017-01-22T00:41:01.185Z,100
2017-01-22T00:51:14.376Z,100
2017-01-22T01:01:27.519Z,100
2017-01-22T01:11:40.441Z,100
2017-01-22T01:21:54.238Z,100
2017-01-22T01:32:07.482Z,100
2017-01-22T01:42:21.148Z,100
2017-01-22T01:52:35.108Z,100
2017-01-22T02:02:49.178Z,100
2017-01-22T02:13:02.588Z,100
2017-01-22T02:23:15.688Z,100
2017-01-22T02:33:30.156Z,100
2017-01-22T02:43:43.729Z,100
2017-01-22T02:53:58.623Z,100
2017-01-22T03:04:12.142Z,100
2017-01-22T03:14:26.583Z,100
2017-01-22T03:24:39.935Z,100
2017-01-22T03:34:54.828Z,100
2017-01-22T03:45:08.308Z,100
2017-01-22T03:55:22.727Z,100
2017-01-22T04:05:36.575Z,100
2017-01-22T04:15:50.285Z,100
2017-01-22T04:26:05.075Z,100
2017-01-22T04:36:19.571Z,100
2017-01-22T04:46:33.430Z,100
2017-01-22T04:56:47.083Z,100
2017-01-22T05:07:01.691Z,100
2017-01-22T05:17:16.108Z,100
2017-01-22T05:27:30.240Z,100
2017-01-22T05:37:45.014Z,100
2017-01-22T05:47:58.571Z,100
2017-01-22T05:58:12.742Z,100
2017-01-22T06:08:27.456Z,100
2017-01-22T06:18:40.956Z,100
2017-01-22T06:28:55.444Z,100
2017-01-22T06:39:09.196Z,100
2017-01-22T06:49:22.754Z,100
2017-01-22T06:59:35.861Z,100
2017-01-22T07:09:49.705Z,100
2017-01-22T07:20:03.771Z,100
2017-01-22T07:30:16.773Z,100
2017-01-22T07:40:31.444Z,100
2017-01-22T07:50:45.493Z,100
2017-01-22T08:00:59.526Z,100
2017-01-22T08:11:13.684Z,100
2017-01-22T08:21:28.237Z,100
2017-01-22T08:31:44.287Z,100
2017-01-22T08:41:56.243Z,100
2017-01-22T08:52:11.239Z,100
2017-01-22T09:02:25.187Z,100
2017-01-22T09:12:39.869Z,100
2017-01-22T09:22:53.834Z,100
2017-01-22T09:33:06.771Z,100
2017-01-22T09:53:35.942Z,100
2017-01-22T10:03:49.196Z,100
2017-01-22T10:14:03.360Z,100
2017-01-22T10:24:16.516Z,100
2017-01-22T10:34:30.597Z,100
2017-01-22T10:44:44.946Z,100
2017-01-22T10:54:59.548Z,100
2017-01-22T11:05:13.598Z,98.8
2017-01-22T11:15:27.496Z,97
2017-01-22T11:25:41.359Z,94.3
2017-01-22T11:35:56.460Z,92.2
2017-01-22T11:46:09.849Z,90.9
2017-01-22T11:56:24.544Z,90.2
2017-01-22T12:06:39.301Z,89
2017-01-22T12:16:52.795Z,88.1
2017-01-22T12:27:07.695Z,86.5
2017-01-22T12:37:21.882Z,84.9
2017-01-22T12:47:36.339Z,84.6
2017-01-22T12:57:51.138Z,84
2017-01-22T13:08:05.807Z,83.2
2017-01-22T13:18:19.325Z,82.6
2017-01-22T13:28:33.670Z,82.4
2017-01-22T13:38:48.324Z,82.2
2017-01-22T13:49:01.874Z,82.7
2017-01-22T13:59:15.034Z,83.1
2017-01-22T14:09:29.426Z,83.4
2017-01-22T14:19:43.644Z,83.3
2017-01-22T14:29:57.812Z,84
2017-01-22T14:40:11.916Z,84.3
2017-01-22T14:50:26.023Z,84.8
2017-01-22T15:00:40.438Z,84.6
2017-01-22T15:10:55.198Z,85.9
2017-01-22T15:21:09.700Z,87.7
2017-01-22T15:31:24.140Z,88.1
2017-01-22T15:41:38.259Z,88.5
2017-01-22T15:51:52.952Z,89.3
2017-01-22T16:02:06.002Z,90.3
2017-01-22T16:12:20.676Z,90.2
2017-01-22T16:22:34.368Z,92.2
2017-01-22T16:32:48.813Z,93.4
2017-01-22T16:43:02.710Z,94.2
2017-01-22T16:53:15.861Z,94.3
2017-01-22T17:03:28.916Z,96.2
2017-01-22T17:13:43.297Z,96.6
2017-01-22T17:23:57.686Z,98.5
2017-01-22T17:34:12.473Z,99.9
2017-01-22T17:44:26.724Z,100
2017-01-22T17:54:41.544Z,100
2017-01-22T18:04:55.548Z,100
2017-01-22T18:15:09.038Z,100
2017-01-22T18:25:23.298Z,100
2017-01-22T18:35:37.378Z,100
2017-01-22T18:45:50.637Z,100
2017-01-22T18:56:05.266Z,100
2017-01-22T19:06:19.540Z,100
2017-01-22T19:16:34.178Z,100
2017-01-22T19:26:48.228Z,100
2017-01-22T19:37:03.068Z,100
2017-01-22T19:47:16.810Z,100
2017-01-22T19:57:30.573Z,100
2017-01-22T20:07:45.418Z,100
2017-01-22T20:17:59.689Z,100
2017-01-22T20:28:13.752Z,100
2017-01-22T20:38:27.584Z,100
2017-01-22T20:48:40.606Z,100
2017-01-22T20:58:54.725Z,100
2017-01-22T21:09:09.289Z,100
2017-01-22T21:19:22.415Z,100
2017-01-22T21:29:37.762Z,100
2017-01-22T21:39:50.444Z,100
2017-01-22T21:50:04.444Z,100
2017-01-22T22:00:19.506Z,100
2017-01-22T22:10:32.429Z,100
2017-01-22T22:20:45.886Z,100
2017-01-22T22:30:59.545Z,100
2017-01-22T22:41:14.088Z,100
2017-01-22T22:51:27.361Z,100
2017-01-22T23:01:40.948Z,100
2017-01-22T23:11:54.518Z,100
2017-01-22T23:22:08.213Z,100
2017-01-22T23:32:22.140Z,100
2017-01-22T23:42:35.358Z,100
2017-01-22T23:52:50.216Z,100
